Bailey, North Carolina
Current Conditions -  °F | °C
As of 4:53 AM on Friday 24 Oct 2014 (Local Time) from KRWI Reporting Station
Clear Clear  
Wind Chill: 47°   Ceiling: Unl
Heat Index: 49°   Visibility: 10mi
Dew Point: 42°   Wind: 5mph
Humidity: 77%   Direction: 340°NNW
Pressure: 30"   Gusts: NA
Location:  35.78°N, 78.12°W
Report Text: KRWI 240853Z AUTO 34004KT 10SM CLR 09/06 A3000 RMK AO2 SLP157 T00940056 55000
Loading
Personal Weather Stations






























Interactive Weather Map
Tropical Storm Tracking
New forecast layout! Learn more

10-Day Weather Forecast

Advertisements
Track Severe Weather on mobile